sensor_id;sensor_type;location;lat;lon;timestamp;pressure;altitude;pressure_sealevel;temperature;humidity
13836;BME280;6988;52.614;13.500;2023-07-16T00:01:24;53535.78;;;-143.77;68.63
13836;BME280;6988;52.614;13.500;2023-07-16T00:06:16;53531.69;;;-143.77;68.66
13836;BME280;6988;52.614;13.500;2023-07-16T00:11:08;53570.66;;;-143.77;68.41
13836;BME280;6988;52.614;13.500;2023-07-16T00:15:59;53550.13;;;-143.77;68.19
13836;BME280;6988;52.614;13.500;2023-07-16T00:20:53;53543.97;;;-143.77;68.33
13836;BME280;6988;52.614;13.500;2023-07-16T00:25:45;53502.97;;;-143.77;68.34
13836;BME280;6988;52.614;13.500;2023-07-16T00:30:37;53597.31;;;-143.77;67.88
13836;BME280;6988;52.614;13.500;2023-07-16T00:35:29;53578.84;;;-143.77;68.09
13836;BME280;6988;52.614;13.500;2023-07-16T00:40:22;53572.72;;;-143.77;68.28
13836;BME280;6988;52.614;13.500;2023-07-16T00:45:14;53572.72;;;-143.77;68.44
13836;BME280;6988;52.614;13.500;2023-07-16T00:50:08;53609.63;;;-143.77;68.94
13836;BME280;6988;52.614;13.500;2023-07-16T00:55:01;53539.88;;;-143.77;69.59
13836;BME280;6988;52.614;13.500;2023-07-16T00:59:54;53601.44;;;-143.77;69.23
13836;BME280;6988;52.614;13.500;2023-07-16T01:04:47;53564.50;;;-143.77;70.04
13836;BME280;6988;52.614;13.500;2023-07-16T01:09:42;53589.13;;;-143.77;70.09
13836;BME280;6988;52.614;13.500;2023-07-16T01:14:34;53587.06;;;-143.77;69.52
13836;BME280;6988;52.614;13.500;2023-07-16T01:19:29;53566.56;;;-143.77;69.22
13836;BME280;6988;52.614;13.500;2023-07-16T01:24:53;53562.44;;;-143.77;69.03
13836;BME280;6988;52.614;13.500;2023-07-16T01:29:51;53570.66;;;-143.77;67.95
13836;BME280;6988;52.614;13.500;2023-07-16T01:34:48;53543.97;;;-143.77;67.37
13836;BME280;6988;52.614;13.500;2023-07-16T01:39:44;53539.88;;;-143.77;66.29
13836;BME280;6988;52.614;13.500;2023-07-16T01:44:36;53548.09;;;-143.77;66.58
13836;BME280;6988;52.614;13.500;2023-07-16T01:49:30;53548.09;;;-143.77;66.33
13836;BME280;6988;52.614;13.500;2023-07-16T01:54:22;53523.47;;;-143.77;66.25
13836;BME280;6988;52.614;13.500;2023-07-16T01:59:15;53543.97;;;-143.77;65.65
13836;BME280;6988;52.614;13.500;2023-07-16T02:04:07;53531.69;;;-143.77;65.81
13836;BME280;6988;52.614;13.500;2023-07-16T02:09:02;53537.84;;;-143.77;65.98
13836;BME280;6988;52.614;13.500;2023-07-16T02:13:54;53556.28;;;-143.77;65.82
13836;BME280;6988;52.614;13.500;2023-07-16T02:18:46;53550.13;;;-143.77;65.81
13836;BME280;6988;52.614;13.500;2023-07-16T02:23:38;53550.13;;;-143.77;65.45
13836;BME280;6988;52.614;13.500;2023-07-16T02:28:31;53521.41;;;-143.77;65.59
13836;BME280;6988;52.614;13.500;2023-07-16T02:33:23;53554.25;;;-143.77;68.73
13836;BME280;6988;52.614;13.500;2023-07-16T02:38:15;53562.44;;;-143.77;70.58
13836;BME280;6988;52.614;13.500;2023-07-16T02:43:07;53603.47;;;-143.77;71.71
13836;BME280;6988;52.614;13.500;2023-07-16T02:48:00;53589.13;;;-143.77;72.89
13836;BME280;6988;52.614;13.500;2023-07-16T02:52:52;53638.34;;;-143.77;74.09
13836;BME280;6988;52.614;13.500;2023-07-16T02:57:44;53644.50;;;-143.77;75.24
13836;BME280;6988;52.614;13.500;2023-07-16T03:02:36;53634.25;;;-143.77;76.11
13836;BME280;6988;52.614;13.500;2023-07-16T03:07:29;53642.47;;;-143.77;76.32
13836;BME280;6988;52.614;13.500;2023-07-16T03:12:21;53654.75;;;-143.77;77.03
13836;BME280;6988;52.614;13.500;2023-07-16T03:17:13;53667.06;;;-143.77;77.42
13836;BME280;6988;52.614;13.500;2023-07-16T03:22:05;53656.81;;;-143.77;77.73
13836;BME280;6988;52.614;13.500;2023-07-16T03:26:59;53679.38;;;-143.77;77.34
13836;BME280;6988;52.614;13.500;2023-07-16T03:31:52;53662.97;;;-143.77;77.20
13836;BME280;6988;52.614;13.500;2023-07-16T03:36:46;53658.88;;;-143.77;77.27
13836;BME280;6988;52.614;13.500;2023-07-16T03:41:38;53667.06;;;-143.77;77.38
13836;BME280;6988;52.614;13.500;2023-07-16T03:46:31;53652.72;;;-143.77;78.08
13836;BME280;6988;52.614;13.500;2023-07-16T03:51:23;53662.97;;;-143.77;78.58
13836;BME280;6988;52.614;13.500;2023-07-16T03:56:19;53679.38;;;-143.77;78.24
13836;BME280;6988;52.614;13.500;2023-07-16T04:01:11;53704.00;;;-143.77;78.91
13836;BME280;6988;52.614;13.500;2023-07-16T04:06:06;53693.75;;;-143.77;79.15
13836;BME280;6988;52.614;13.500;2023-07-16T04:10:59;53687.59;;;-143.77;79.45
13836;BME280;6988;52.614;13.500;2023-07-16T04:15:51;53646.56;;;-143.77;79.98
13836;BME280;6988;52.614;13.500;2023-07-16T04:20:45;53681.44;;;-143.77;80.08
13836;BME280;6988;52.614;13.500;2023-07-16T04:25:38;53699.91;;;-143.77;80.16
13836;BME280;6988;52.614;13.500;2023-07-16T04:30:29;53685.53;;;-143.77;79.85
13836;BME280;6988;52.614;13.500;2023-07-16T04:35:22;53673.22;;;-143.77;79.66
13836;BME280;6988;52.614;13.500;2023-07-16T04:40:13;53679.38;;;-143.77;79.59
13836;BME280;6988;52.614;13.500;2023-07-16T04:45:07;53671.19;;;-143.77;79.55
13836;BME280;6988;52.614;13.500;2023-07-16T04:50:00;53722.47;;;-143.77;79.44
13836;BME280;6988;52.614;13.500;2023-07-16T04:54:52;53679.38;;;-143.77;78.90
13836;BME280;6988;52.614;13.500;2023-07-16T04:59:44;53671.19;;;-143.77;79.16
13836;BME280;6988;52.614;13.500;2023-07-16T05:04:37;53667.06;;;-143.77;78.92
13836;BME280;6988;52.614;13.500;2023-07-16T05:09:29;53728.63;;;-143.77;78.98
13836;BME280;6988;52.614;13.500;2023-07-16T05:14:21;53679.38;;;-143.77;78.73
13836;BME280;6988;52.614;13.500;2023-07-16T05:19:13;53691.69;;;-143.77;78.53
13836;BME280;6988;52.614;13.500;2023-07-16T05:24:06;53687.59;;;-143.77;78.48
13836;BME280;6988;52.614;13.500;2023-07-16T05:28:58;53650.66;;;-143.77;77.56
13836;BME280;6988;52.614;13.500;2023-07-16T05:33:50;53654.75;;;-143.77;76.67
13836;BME280;6988;52.614;13.500;2023-07-16T05:38:41;53634.25;;;-143.77;75.92
13836;BME280;6988;52.614;13.500;2023-07-16T05:43:35;53642.47;;;-143.77;75.40
13836;BME280;6988;52.614;13.500;2023-07-16T05:48:26;53613.72;;;-143.77;74.95
13836;BME280;6988;52.614;13.500;2023-07-16T05:53:18;53632.19;;;-143.77;74.92
13836;BME280;6988;52.614;13.500;2023-07-16T05:58:10;53654.75;;;-143.77;74.70
13836;BME280;6988;52.614;13.500;2023-07-16T06:03:03;53654.75;;;-143.77;74.07
13836;BME280;6988;52.614;13.500;2023-07-16T06:07:55;53646.56;;;-143.77;74.09
13836;BME280;6988;52.614;13.500;2023-07-16T06:12:47;53636.31;;;-143.77;74.12
13836;BME280;6988;52.614;13.500;2023-07-16T06:17:39;53626.03;;;-143.77;74.44
13836;BME280;6988;52.614;13.500;2023-07-16T06:22:32;53646.56;;;-143.77;73.88
13836;BME280;6988;52.614;13.500;2023-07-16T06:27:24;53617.84;;;-143.77;72.84
13836;BME280;6988;52.614;13.500;2023-07-16T06:32:16;53595.28;;;-143.77;72.73
13836;BME280;6988;52.614;13.500;2023-07-16T06:37:08;53560.41;;;-143.77;72.33
13836;BME280;6988;52.614;13.500;2023-07-16T06:42:01;53470.13;;;-143.77;71.54
13836;BME280;6988;52.614;13.500;2023-07-16T06:46:53;53459.88;;;-143.77;70.36
13836;BME280;6988;52.614;13.500;2023-07-16T06:51:45;53408.59;;;-143.77;69.51
13836;BME280;6988;52.614;13.500;2023-07-16T06:56:37;53388.06;;;-143.77;68.49
13836;BME280;6988;52.614;13.500;2023-07-16T07:01:30;53509.09;;;-143.77;66.42
13836;BME280;6988;52.614;13.500;2023-07-16T07:06:22;53322.44;;;-143.77;66.10
13836;BME280;6988;52.614;13.500;2023-07-16T07:11:14;53498.84;;;-143.77;66.31
13836;BME280;6988;52.614;13.500;2023-07-16T07:16:06;53470.13;;;-143.77;66.18
13836;BME280;6988;52.614;13.500;2023-07-16T07:20:59;53490.66;;;-143.77;65.41
13836;BME280;6988;52.614;13.500;2023-07-16T07:25:51;53509.09;;;-143.77;65.70
13836;BME280;6988;52.614;13.500;2023-07-16T07:30:44;53486.53;;;-143.77;65.57
13836;BME280;6988;52.614;13.500;2023-07-16T07:35:36;53386.03;;;-143.77;65.34
13836;BME280;6988;52.614;13.500;2023-07-16T07:40:29;53388.06;;;-143.77;63.33
13836;BME280;6988;52.614;13.500;2023-07-16T07:45:21;53273.19;;;-143.77;63.49
13836;BME280;6988;52.614;13.500;2023-07-16T07:50:12;53466.03;;;-143.77;61.15
13836;BME280;6988;52.614;13.500;2023-07-16T07:55:05;53474.25;;;-143.77;61.92
13836;BME280;6988;52.614;13.500;2023-07-16T07:59:59;53461.94;;;-143.77;62.55
13836;BME280;6988;52.614;13.500;2023-07-16T08:04:51;53299.88;;;-143.77;62.08
13836;BME280;6988;52.614;13.500;2023-07-16T08:09:43;53281.41;;;-143.77;60.35
13836;BME280;6988;52.614;13.500;2023-07-16T08:14:35;53429.09;;;-143.77;58.37
13836;BME280;6988;52.614;13.500;2023-07-16T08:19:28;53404.50;;;-143.77;57.64
13836;BME280;6988;52.614;13.500;2023-07-16T08:24:20;53168.59;;;-143.77;55.82
13836;BME280;6988;52.614;13.500;2023-07-16T08:29:12;53158.34;;;-143.77;54.03
13836;BME280;6988;52.614;13.500;2023-07-16T08:34:04;53416.78;;;-143.77;53.16
13836;BME280;6988;52.614;13.500;2023-07-16T08:38:57;53160.38;;;-143.77;50.88
13836;BME280;6988;52.614;13.500;2023-07-16T08:43:49;53105.00;;;-143.77;49.78
13836;BME280;6988;52.614;13.500;2023-07-16T08:48:42;53094.75;;;-143.77;48.43
13836;BME280;6988;52.614;13.500;2023-07-16T08:53:34;53082.44;;;-143.77;47.40
13836;BME280;6988;52.614;13.500;2023-07-16T08:58:30;53308.06;;;-143.77;46.99
13836;BME280;6988;52.614;13.500;2023-07-16T09:03:22;53061.94;;;-143.77;46.47
13836;BME280;6988;52.614;13.500;2023-07-16T09:08:14;53051.66;;;-143.77;45.42
13836;BME280;6988;52.614;13.500;2023-07-16T09:13:07;53053.72;;;-143.77;45.19
13836;BME280;6988;52.614;13.500;2023-07-16T09:18:01;53078.34;;;-143.77;42.39
13836;BME280;6988;52.614;13.500;2023-07-16T09:22:53;53031.16;;;-143.77;43.28
13836;BME280;6988;52.614;13.500;2023-07-16T09:27:48;53025.00;;;-143.77;43.04
13836;BME280;6988;52.614;13.500;2023-07-16T09:32:40;52977.81;;;-143.77;42.45
13836;BME280;6988;52.614;13.500;2023-07-16T09:37:35;52973.72;;;-143.77;42.43
13836;BME280;6988;52.614;13.500;2023-07-16T09:42:29;52945.00;;;-143.77;41.25
13836;BME280;6988;52.614;13.500;2023-07-16T09:47:21;52953.22;;;-143.77;40.45
13836;BME280;6988;52.614;13.500;2023-07-16T09:52:14;52920.41;;;-143.77;40.91
13836;BME280;6988;52.614;13.500;2023-07-16T09:57:08;53045.50;;;-143.77;39.73
13836;BME280;6988;52.614;13.500;2023-07-16T10:02:00;52873.22;;;-143.77;40.70
13836;BME280;6988;52.614;13.500;2023-07-16T10:06:55;52821.94;;;-143.77;39.45
13836;BME280;6988;52.614;13.500;2023-07-16T10:11:47;52824.00;;;-143.77;38.26
13836;BME280;6988;52.614;13.500;2023-07-16T10:16:40;52817.84;;;-143.77;37.91
13836;BME280;6988;52.614;13.500;2023-07-16T10:21:37;53070.13;;;-143.77;38.86
13836;BME280;6988;52.614;13.500;2023-07-16T10:26:30;53072.19;;;-143.77;39.53
13836;BME280;6988;52.614;13.500;2023-07-16T10:31:24;52901.94;;;-143.77;38.79
13836;BME280;6988;52.614;13.500;2023-07-16T10:36:19;52856.81;;;-143.77;37.63
13836;BME280;6988;52.614;13.500;2023-07-16T10:41:11;52858.88;;;-143.77;38.03
13836;BME280;6988;52.614;13.500;2023-07-16T10:46:04;52830.16;;;-143.77;37.50
13836;BME280;6988;52.614;13.500;2023-07-16T10:50:56;52789.13;;;-143.77;37.89
13836;BME280;6988;52.614;13.500;2023-07-16T10:55:49;52791.19;;;-143.77;36.89
13836;BME280;6988;52.614;13.500;2023-07-16T11:00:42;52805.53;;;-143.77;37.48
13836;BME280;6988;52.614;13.500;2023-07-16T11:05:34;52727.59;;;-143.77;36.68
13836;BME280;6988;52.614;13.500;2023-07-16T11:10:29;52986.03;;;-143.77;37.55
13836;BME280;6988;52.614;13.500;2023-07-16T11:15:32;52867.06;;;-143.77;37.83
13836;BME280;6988;52.614;13.500;2023-07-16T11:20:24;52983.97;;;-143.77;37.04
13836;BME280;6988;52.614;13.500;2023-07-16T11:25:17;52975.78;;;-143.77;38.10
13836;BME280;6988;52.614;13.500;2023-07-16T11:30:11;52797.34;;;-143.77;36.94
13836;BME280;6988;52.614;13.500;2023-07-16T11:35:07;53000.38;;;-143.77;36.84
13836;BME280;6988;52.614;13.500;2023-07-16T11:40:03;53078.34;;;-143.77;37.42
13836;BME280;6988;52.614;13.500;2023-07-16T11:44:56;52871.16;;;-143.77;37.57
13836;BME280;6988;52.614;13.500;2023-07-16T11:49:48;53107.06;;;-143.77;38.17
13836;BME280;6988;52.614;13.500;2023-07-16T11:54:42;53061.94;;;-143.77;37.87
13836;BME280;6988;52.614;13.500;2023-07-16T11:59:33;53092.69;;;-143.77;38.08
13836;BME280;6988;52.614;13.500;2023-07-16T12:04:25;53107.06;;;-143.77;39.42
13836;BME280;6988;52.614;13.500;2023-07-16T12:09:17;53076.28;;;-143.77;39.36
13836;BME280;6988;52.614;13.500;2023-07-16T12:14:10;53176.78;;;-143.77;38.97
13836;BME280;6988;52.614;13.500;2023-07-16T12:19:03;52936.81;;;-143.77;40.06
13836;BME280;6988;52.614;13.500;2023-07-16T12:23:55;52918.34;;;-143.77;38.21
13836;BME280;6988;52.614;13.500;2023-07-16T12:28:47;52852.72;;;-143.77;36.37
13836;BME280;6988;52.614;13.500;2023-07-16T12:33:40;53002.44;;;-143.77;35.89
13836;BME280;6988;52.614;13.500;2023-07-16T12:38:32;52817.84;;;-143.77;34.11
13836;BME280;6988;52.614;13.500;2023-07-16T12:43:23;52826.03;;;-143.77;33.79
13836;BME280;6988;52.614;13.500;2023-07-16T12:48:17;52821.94;;;-143.77;33.20
13836;BME280;6988;52.614;13.500;2023-07-16T12:53:10;52797.34;;;-143.77;32.79
13836;BME280;6988;52.614;13.500;2023-07-16T12:58:02;52805.53;;;-143.77;32.00
13836;BME280;6988;52.614;13.500;2023-07-16T13:02:54;52817.84;;;-143.77;32.28
13836;BME280;6988;52.614;13.500;2023-07-16T13:07:46;52862.97;;;-143.77;31.66
13836;BME280;6988;52.614;13.500;2023-07-16T13:12:39;52807.59;;;-143.77;31.71
13836;BME280;6988;52.614;13.500;2023-07-16T13:17:30;52860.91;;;-143.77;31.26
13836;BME280;6988;52.614;13.500;2023-07-16T13:22:22;52846.56;;;-143.77;31.20
13836;BME280;6988;52.614;13.500;2023-07-16T13:27:20;52885.53;;;-143.77;32.33
13836;BME280;6988;52.614;13.500;2023-07-16T13:32:14;52990.13;;;-143.77;32.48
13836;BME280;6988;52.614;13.500;2023-07-16T13:37:05;53012.69;;;-143.77;32.56
13836;BME280;6988;52.614;13.500;2023-07-16T13:41:58;52916.28;;;-143.77;33.02
13836;BME280;6988;52.614;13.500;2023-07-16T13:46:49;52936.81;;;-143.77;33.38
13836;BME280;6988;52.614;13.500;2023-07-16T13:51:43;53006.53;;;-143.77;33.61
13836;BME280;6988;52.614;13.500;2023-07-16T13:56:35;52924.50;;;-143.77;33.11
13836;BME280;6988;52.614;13.500;2023-07-16T14:01:27;53002.44;;;-143.77;32.96
13836;BME280;6988;52.614;13.500;2023-07-16T14:06:20;53022.94;;;-143.77;33.45
13836;BME280;6988;52.614;13.500;2023-07-16T14:11:14;53078.34;;;-143.77;33.35
13836;BME280;6988;52.614;13.500;2023-07-16T14:16:06;53031.16;;;-143.77;34.16
13836;BME280;6988;52.614;13.500;2023-07-16T14:20:58;53041.41;;;-143.77;33.37
13836;BME280;6988;52.614;13.500;2023-07-16T14:25:50;53045.50;;;-143.77;33.36
13836;BME280;6988;52.614;13.500;2023-07-16T14:30:43;52998.34;;;-143.77;33.71
13836;BME280;6988;52.614;13.500;2023-07-16T14:35:35;52990.13;;;-143.77;33.11
13836;BME280;6988;52.614;13.500;2023-07-16T14:40:27;53047.56;;;-143.77;32.77
13836;BME280;6988;52.614;13.500;2023-07-16T14:45:19;52981.94;;;-143.77;32.73
13836;BME280;6988;52.614;13.500;2023-07-16T14:50:12;53059.88;;;-143.77;32.55
13836;BME280;6988;52.614;13.500;2023-07-16T14:55:05;53039.38;;;-143.77;32.45
13836;BME280;6988;52.614;13.500;2023-07-16T14:59:58;52990.13;;;-143.77;32.46
13836;BME280;6988;52.614;13.500;2023-07-16T15:04:50;53051.66;;;-143.77;32.44
13836;BME280;6988;52.614;13.500;2023-07-16T15:09:43;53063.97;;;-143.77;32.99
13836;BME280;6988;52.614;13.500;2023-07-16T15:14:36;53096.78;;;-143.77;33.32
13836;BME280;6988;52.614;13.500;2023-07-16T15:19:27;53012.69;;;-143.77;33.47
13836;BME280;6988;52.614;13.500;2023-07-16T15:24:19;53006.53;;;-143.77;32.97
13836;BME280;6988;52.614;13.500;2023-07-16T15:29:24;52992.19;;;-143.77;32.58
13836;BME280;6988;52.614;13.500;2023-07-16T15:34:16;53004.50;;;-143.77;31.65
13836;BME280;6988;52.614;13.500;2023-07-16T15:39:08;52998.34;;;-143.77;32.08
13836;BME280;6988;52.614;13.500;2023-07-16T15:44:00;53002.44;;;-143.77;32.19
13836;BME280;6988;52.614;13.500;2023-07-16T15:48:55;53002.44;;;-143.77;32.51
13836;BME280;6988;52.614;13.500;2023-07-16T15:53:53;53068.09;;;-143.77;32.38
13836;BME280;6988;52.614;13.500;2023-07-16T15:58:45;53012.69;;;-143.77;32.55
13836;BME280;6988;52.614;13.500;2023-07-16T16:03:38;53090.66;;;-143.77;32.88
13836;BME280;6988;52.614;13.500;2023-07-16T16:08:32;53068.09;;;-143.77;32.53
13836;BME280;6988;52.614;13.500;2023-07-16T16:13:25;53022.94;;;-143.77;32.81
13836;BME280;6988;52.614;13.500;2023-07-16T16:18:18;53016.81;;;-143.77;33.26
13836;BME280;6988;52.614;13.500;2023-07-16T16:23:10;53115.25;;;-143.77;33.66
13836;BME280;6988;52.614;13.500;2023-07-16T16:28:05;53100.91;;;-143.77;32.55
13836;BME280;6988;52.614;13.500;2023-07-16T16:32:58;53100.91;;;-143.77;32.79
13836;BME280;6988;52.614;13.500;2023-07-16T16:37:51;53141.91;;;-143.77;32.59
13836;BME280;6988;52.614;13.500;2023-07-16T16:42:43;53143.97;;;-143.77;33.57
13836;BME280;6988;52.614;13.500;2023-07-16T16:47:37;53141.91;;;-143.77;33.06
13836;BME280;6988;52.614;13.500;2023-07-16T16:52:29;53174.75;;;-143.77;33.37
13836;BME280;6988;52.614;13.500;2023-07-16T16:57:21;53158.34;;;-143.77;33.83
13836;BME280;6988;52.614;13.500;2023-07-16T17:02:13;53141.91;;;-143.77;33.66
13836;BME280;6988;52.614;13.500;2023-07-16T17:07:06;53154.22;;;-143.77;34.16
13836;BME280;6988;52.614;13.500;2023-07-16T17:11:59;53166.53;;;-143.77;33.91
13836;BME280;6988;52.614;13.500;2023-07-16T17:16:51;53162.44;;;-143.77;33.72
13836;BME280;6988;52.614;13.500;2023-07-16T17:21:43;53176.78;;;-143.77;33.57
13836;BME280;6988;52.614;13.500;2023-07-16T17:26:36;53168.59;;;-143.77;33.56
13836;BME280;6988;52.614;13.500;2023-07-16T17:31:28;53205.50;;;-143.77;33.71
13836;BME280;6988;52.614;13.500;2023-07-16T17:36:20;53172.69;;;-143.77;33.63
13836;BME280;6988;52.614;13.500;2023-07-16T17:41:13;53207.56;;;-143.77;33.39
13836;BME280;6988;52.614;13.500;2023-07-16T17:46:06;53232.19;;;-143.77;34.18
13836;BME280;6988;52.614;13.500;2023-07-16T17:51:00;53242.44;;;-143.77;34.31
13836;BME280;6988;52.614;13.500;2023-07-16T17:55:52;53232.19;;;-143.77;33.74
13836;BME280;6988;52.614;13.500;2023-07-16T18:00:44;53236.28;;;-143.77;33.47
13836;BME280;6988;52.614;13.500;2023-07-16T18:05:38;53244.50;;;-143.77;34.80
13836;BME280;6988;52.614;13.500;2023-07-16T18:10:31;53250.63;;;-143.77;34.92
13836;BME280;6988;52.614;13.500;2023-07-16T18:15:22;53242.44;;;-143.77;34.78
13836;BME280;6988;52.614;13.500;2023-07-16T18:20:14;53256.78;;;-143.77;35.56
13836;BME280;6988;52.614;13.500;2023-07-16T18:25:09;53281.41;;;-143.77;35.51
13836;BME280;6988;52.614;13.500;2023-07-16T18:30:03;53260.91;;;-143.77;35.90
13836;BME280;6988;52.614;13.500;2023-07-16T18:34:56;53328.59;;;-143.77;36.32
13836;BME280;6988;52.614;13.500;2023-07-16T18:39:49;53293.72;;;-143.77;36.53
13836;BME280;6988;52.614;13.500;2023-07-16T18:44:45;53312.19;;;-143.77;36.98
13836;BME280;6988;52.614;13.500;2023-07-16T18:49:38;53310.13;;;-143.77;36.77
13836;BME280;6988;52.614;13.500;2023-07-16T18:54:29;53342.94;;;-143.77;37.51
13836;BME280;6988;52.614;13.500;2023-07-16T18:59:21;53349.09;;;-143.77;37.92
13836;BME280;6988;52.614;13.500;2023-07-16T19:04:15;53355.25;;;-143.77;37.96
13836;BME280;6988;52.614;13.500;2023-07-16T19:09:07;53347.06;;;-143.77;38.48
13836;BME280;6988;52.614;13.500;2023-07-16T19:13:59;53342.94;;;-143.77;39.68
13836;BME280;6988;52.614;13.500;2023-07-16T19:18:51;53365.50;;;-143.77;40.45
13836;BME280;6988;52.614;13.500;2023-07-16T19:23:44;53375.78;;;-143.77;41.09
13836;BME280;6988;52.614;13.500;2023-07-16T19:28:36;53388.06;;;-143.77;41.34
13836;BME280;6988;52.614;13.500;2023-07-16T19:33:28;53412.69;;;-143.77;41.79
13836;BME280;6988;52.614;13.500;2023-07-16T19:38:20;53398.34;;;-143.77;42.02
13836;BME280;6988;52.614;13.500;2023-07-16T19:43:13;53427.06;;;-143.77;41.92
13836;BME280;6988;52.614;13.500;2023-07-16T19:48:10;53404.50;;;-143.77;42.29
13836;BME280;6988;52.614;13.500;2023-07-16T19:53:04;53412.69;;;-143.77;42.48
13836;BME280;6988;52.614;13.500;2023-07-16T19:57:56;53400.38;;;-143.77;42.85
13836;BME280;6988;52.614;13.500;2023-07-16T20:02:49;53445.50;;;-143.77;42.94
13836;BME280;6988;52.614;13.500;2023-07-16T20:07:42;53441.41;;;-143.77;43.01
13836;BME280;6988;52.614;13.500;2023-07-16T20:12:35;53466.03;;;-143.77;43.73
13836;BME280;6988;52.614;13.500;2023-07-16T20:17:27;53463.97;;;-143.77;43.56
13836;BME280;6988;52.614;13.500;2023-07-16T20:22:21;53482.44;;;-143.77;44.09
13836;BME280;6988;52.614;13.500;2023-07-16T20:27:12;53525.53;;;-143.77;44.55
13836;BME280;6988;52.614;13.500;2023-07-16T20:32:05;53500.91;;;-143.77;44.98
13836;BME280;6988;52.614;13.500;2023-07-16T20:36:57;53482.44;;;-143.77;45.01
13836;BME280;6988;52.614;13.500;2023-07-16T20:41:50;53509.09;;;-143.77;44.78
13836;BME280;6988;52.614;13.500;2023-07-16T20:46:42;53517.31;;;-143.77;45.16
13836;BME280;6988;52.614;13.500;2023-07-16T20:51:34;53496.81;;;-143.77;45.34
13836;BME280;6988;52.614;13.500;2023-07-16T20:56:26;53543.97;;;-143.77;46.43
13836;BME280;6988;52.614;13.500;2023-07-16T21:01:19;53574.75;;;-143.77;47.65
13836;BME280;6988;52.614;13.500;2023-07-16T21:06:11;53539.88;;;-143.77;48.45
13836;BME280;6988;52.614;13.500;2023-07-16T21:11:03;53611.69;;;-143.77;48.44
13836;BME280;6988;52.614;13.500;2023-07-16T21:15:55;53593.22;;;-143.77;48.74
13836;BME280;6988;52.614;13.500;2023-07-16T21:20:48;53576.81;;;-143.77;49.21
13836;BME280;6988;52.614;13.500;2023-07-16T21:25:40;53667.06;;;-143.77;49.19
13836;BME280;6988;52.614;13.500;2023-07-16T21:30:32;53607.59;;;-143.77;48.87
13836;BME280;6988;52.614;13.500;2023-07-16T21:35:24;53630.16;;;-143.77;49.12
13836;BME280;6988;52.614;13.500;2023-07-16T21:40:17;53673.22;;;-143.77;49.14
13836;BME280;6988;52.614;13.500;2023-07-16T21:45:10;53615.78;;;-143.77;49.29
13836;BME280;6988;52.614;13.500;2023-07-16T22:04:33;53667.06;;;-143.77;52.64
13836;BME280;6988;52.614;13.500;2023-07-16T22:09:25;53628.09;;;-143.77;53.02
13836;BME280;6988;52.614;13.500;2023-07-16T22:14:17;53662.97;;;-143.77;53.59
13836;BME280;6988;52.614;13.500;2023-07-16T22:19:09;53662.97;;;-143.77;53.57
13836;BME280;6988;52.614;13.500;2023-07-16T22:24:05;53644.50;;;-143.77;54.46
13836;BME280;6988;52.614;13.500;2023-07-16T22:28:58;53683.50;;;-143.77;54.77
13836;BME280;6988;52.614;13.500;2023-07-16T22:33:50;53673.22;;;-143.77;55.18
13836;BME280;6988;52.614;13.500;2023-07-16T22:38:42;53687.59;;;-143.77;55.13
13836;BME280;6988;52.614;13.500;2023-07-16T22:43:35;53683.50;;;-143.77;55.88
13836;BME280;6988;52.614;13.500;2023-07-16T22:48:27;53687.59;;;-143.77;56.11
13836;BME280;6988;52.614;13.500;2023-07-16T22:53:19;53685.53;;;-143.77;55.97
13836;BME280;6988;52.614;13.500;2023-07-16T22:58:12;53704.00;;;-143.77;56.50
13836;BME280;6988;52.614;13.500;2023-07-16T23:03:05;53683.50;;;-143.77;56.86
13836;BME280;6988;52.614;13.500;2023-07-16T23:07:57;53681.44;;;-143.77;56.53
13836;BME280;6988;52.614;13.500;2023-07-16T23:12:49;53708.09;;;-143.77;56.49
13836;BME280;6988;52.614;13.500;2023-07-16T23:17:42;53716.31;;;-143.77;57.18
13836;BME280;6988;52.614;13.500;2023-07-16T23:22:37;53695.78;;;-143.77;57.07
13836;BME280;6988;52.614;13.500;2023-07-16T23:27:29;53718.34;;;-143.77;57.75
13836;BME280;6988;52.614;13.500;2023-07-16T23:32:21;53710.16;;;-143.77;57.82
13836;BME280;6988;52.614;13.500;2023-07-16T23:37:13;53687.59;;;-143.77;57.96
13836;BME280;6988;52.614;13.500;2023-07-16T23:42:07;53706.06;;;-143.77;58.40
13836;BME280;6988;52.614;13.500;2023-07-16T23:47:00;53695.78;;;-143.77;58.59
13836;BME280;6988;52.614;13.500;2023-07-16T23:51:51;53740.94;;;-143.77;58.73
13836;BME280;6988;52.614;13.500;2023-07-16T23:56:44;53734.78;;;-143.77;58.59
